Time;durP1;ratioP1;P1;durP2;ratioP2;P2;SDS_P1;SDS_P2;PMS_P1;PMS_P2;Temp;Humidity;BMP_temperature;BMP_pressure;BME280_temperature;BME280_humidity;BME280_pressure;Samples;Min_cycle;Max_cycle;Signal;HPM_P1;HPM_P2
2024/04/09 00:04:29;;;;;;;25.30;4.77;;;3.70;99.90;;;;;;1943908;72;27728;-90
2024/04/09 00:07:18;;;;;;;31.77;4.50;;;3.70;99.90;;;;;;1908577;74;25257;-90
2024/04/09 00:10:07;;;;;;;21.93;4.20;;;3.70;99.90;;;;;;1905580;74;25263;-89
2024/04/09 00:12:58;;;;;;;16.93;3.80;;;3.80;99.90;;;;;;1913046;74;25239;-89
2024/04/09 00:15:47;;;;;;;30.10;4.67;;;3.80;99.90;;;;;;1913965;74;25647;-88
2024/04/09 00:18:36;;;;;;;19.53;4.27;;;3.80;99.90;;;;;;1907742;74;25341;-89
2024/04/09 00:21:28;;;;;;;21.87;4.30;;;3.90;99.90;;;;;;1907400;74;25191;-89
2024/04/09 00:24:16;;;;;;;22.17;4.07;;;3.90;99.90;;;;;;1896663;74;25365;-88
2024/04/09 00:27:06;;;;;;;18.07;4.20;;;3.80;99.90;;;;;;1914095;74;25192;-89
2024/04/09 00:29:59;;;;;;;23.13;4.60;;;3.90;99.90;;;;;;1914284;74;25246;-89
2024/04/09 00:35:31;;;;;;;20.77;3.90;;;3.90;99.90;;;;;;1931687;72;27151;-90
2024/04/09 00:38:21;;;;;;;24.07;4.47;;;3.80;99.90;;;;;;1913655;73;25249;-90
2024/04/09 00:41:10;;;;;;;30.30;4.20;;;3.80;99.90;;;;;;1895188;73;25578;-89
2024/04/09 00:46:51;;;;;;;27.77;5.50;;;4.00;99.90;;;;;;1958699;72;27059;-90
2024/04/09 00:49:40;;;;;;;27.17;3.63;;;4.10;99.90;;;;;;1917709;73;25209;-90
2024/04/09 00:52:28;;;;;;;18.77;4.30;;;4.20;99.90;;;;;;1916582;73;25687;-90
2024/04/09 00:55:20;;;;;;;22.00;3.50;;;4.10;99.90;;;;;;1918872;73;25730;-90
2024/04/09 00:58:09;;;;;;;27.80;4.33;;;4.00;99.90;;;;;;1899530;75;25768;-90
2024/04/09 01:00:59;;;;;;;32.33;4.83;;;4.00;99.90;;;;;;1909328;74;25170;-89
2024/04/09 01:03:48;;;;;;;21.27;4.13;;;3.90;99.90;;;;;;1913206;74;25369;-90
2024/04/09 01:06:38;;;;;;;17.67;4.07;;;3.90;99.90;;;;;;1916240;74;25238;-90
2024/04/09 01:12:18;;;;;;;18.23;4.13;;;3.70;99.90;;;;;;1941932;72;27344;-90
2024/04/09 01:15:10;;;;;;;25.50;4.47;;;3.70;99.90;;;;;;1920589;73;25724;-89
2024/04/09 01:17:58;;;;;;;25.67;3.90;;;3.80;99.90;;;;;;1930899;73;25256;-90
2024/04/09 01:20:47;;;;;;;15.50;3.70;;;3.90;99.90;;;;;;1928434;73;25277;-90
2024/04/09 01:23:36;;;;;;;26.80;4.00;;;3.90;99.90;;;;;;1943271;73;25174;-90
2024/04/09 01:26:25;;;;;;;31.63;4.57;;;3.90;99.90;;;;;;1926363;73;25698;-89
2024/04/09 01:31:55;;;;;;;18.07;4.23;;;3.80;99.90;;;;;;1888673;74;27071;-90
2024/04/09 01:34:44;;;;;;;19.40;3.67;;;3.90;99.90;;;;;;1837491;77;25382;-89
2024/04/09 01:37:32;;;;;;;23.60;4.10;;;4.00;99.90;;;;;;1871941;76;25297;-90
2024/04/09 01:40:21;;;;;;;23.13;4.17;;;4.10;99.90;;;;;;1868758;76;25775;-89
2024/04/09 01:43:10;;;;;;;17.87;4.47;;;4.10;99.90;;;;;;1868886;76;25319;-89
2024/04/09 01:45:58;;;;;;;23.63;4.37;;;4.10;99.90;;;;;;1857623;76;25182;-90
2024/04/09 01:48:47;;;;;;;38.23;4.70;;;4.20;99.90;;;;;;1866972;76;25319;-90
2024/04/09 01:51:37;;;;;;;26.60;4.07;;;4.20;99.90;;;;;;1861284;76;25257;-90
2024/04/09 01:54:26;;;;;;;27.17;4.20;;;4.30;99.90;;;;;;1854024;76;25335;-90
2024/04/09 01:57:16;;;;;;;41.60;4.37;;;4.40;99.90;;;;;;1838280;77;25917;-90
2024/04/09 02:00:11;;;;;;;43.13;4.10;;;4.50;99.90;;;;;;1837974;76;25353;-89
2024/04/09 02:02:56;;;;;;;34.70;3.97;;;4.70;99.90;;;;;;1849005;77;25247;-89
2024/04/09 02:05:45;;;;;;;40.87;5.07;;;4.70;99.90;;;;;;1847470;77;25239;-89
2024/04/09 02:08:34;;;;;;;49.17;5.40;;;4.80;99.90;;;;;;1849051;77;25191;-90
2024/04/09 02:11:28;;;;;;;34.50;5.50;;;4.80;99.90;;;;;;1834350;77;26288;-88
2024/04/09 02:16:55;;;;;;;49.17;5.70;;;4.80;99.90;;;;;;1928334;72;27661;-89
2024/04/09 02:19:44;;;;;;;55.23;5.27;;;4.80;99.90;;;;;;1877759;75;25333;-89
2024/04/09 02:39:44;;;;;;;32.53;4.47;;;4.60;99.90;;;;;;1981643;71;26660;-90
2024/04/09 02:42:33;;;;;;;97.30;5.93;;;4.50;99.90;;;;;;1982309;71;25258;-88
2024/04/09 02:45:23;;;;;;;52.43;5.33;;;4.50;99.90;;;;;;2026263;69;25192;-88
2024/04/09 02:48:12;;;;;;;58.63;5.30;;;4.30;99.90;;;;;;2049762;68;25127;-88
2024/04/09 02:51:03;;;;;;;35.90;4.50;;;4.20;99.90;;;;;;2057901;69;25128;-88
2024/04/09 02:53:53;;;;;;;42.70;4.70;;;4.20;99.90;;;;;;2042739;68;25284;-89
2024/04/09 02:59:25;;;;;;;42.90;4.77;;;4.10;99.90;;;;;;1921580;72;27061;-89
2024/04/09 03:05:07;;;;;;;172.63;8.33;;;4.10;99.90;;;;;;1990722;71;27111;-89
2024/04/09 03:07:56;;;;;;;101.13;5.73;;;4.20;99.90;;;;;;1952508;72;25170;-89
2024/04/09 03:10:44;;;;;;;69.90;4.63;;;4.20;99.90;;;;;;1923957;73;25277;-89
2024/04/09 03:13:33;;;;;;;98.20;5.83;;;4.10;99.90;;;;;;1961902;72;25149;-89
2024/04/09 03:16:23;;;;;;;157.43;6.90;;;3.80;99.90;;;;;;1955520;72;25235;-90
2024/04/09 03:19:12;;;;;;;193.47;8.17;;;3.60;99.90;;;;;;1954120;72;25689;-89
2024/04/09 03:22:00;;;;;;;67.30;5.27;;;3.70;99.90;;;;;;1954490;72;25164;-89
2024/04/09 03:24:50;;;;;;;75.27;5.60;;;3.60;99.90;;;;;;1966344;72;25238;-90
2024/04/09 03:27:38;;;;;;;119.70;5.87;;;3.50;99.90;;;;;;1958600;72;25260;-89
2024/04/09 03:30:27;;;;;;;181.07;8.43;;;3.40;99.90;;;;;;1971023;72;25841;-89
2024/04/09 03:33:16;;;;;;;204.47;8.33;;;3.50;99.90;;;;;;1977259;72;25164;-89
2024/04/09 03:36:08;;;;;;;126.67;7.27;;;3.40;99.90;;;;;;1960678;72;25226;-89
2024/04/09 03:38:56;;;;;;;106.97;7.13;;;3.40;99.90;;;;;;1964136;72;25740;-89
2024/04/09 03:44:26;;;;;;;74.33;7.10;;;3.40;99.90;;;;;;1930306;72;27074;-90
2024/04/09 03:47:15;;;;;;;68.73;6.83;;;3.40;99.90;;;;;;1895400;75;25238;-89
2024/04/09 03:50:05;;;;;;;93.40;6.77;;;3.50;99.90;;;;;;1885257;75;25766;-89
2024/04/09 03:52:54;;;;;;;56.27;6.03;;;3.70;99.90;;;;;;1885276;75;25188;-89
2024/04/09 03:55:44;;;;;;;71.17;6.77;;;3.50;99.90;;;;;;1883474;75;25286;-89
2024/04/09 03:58:34;;;;;;;80.67;6.93;;;3.40;99.90;;;;;;1882667;75;25244;-89
2024/04/09 04:01:23;;;;;;;70.67;6.80;;;3.40;99.90;;;;;;1888455;75;25212;-89
2024/04/09 04:04:13;;;;;;;66.53;6.77;;;3.50;99.90;;;;;;1885805;75;25302;-89
2024/04/09 04:07:02;;;;;;;54.10;6.77;;;3.40;99.90;;;;;;1881973;75;25255;-89
2024/04/09 04:14:30;;;;;;;44.10;7.03;;;3.60;99.90;;;;;;1979558;72;26765;-90
2024/04/09 04:17:18;;;;;;;44.03;7.03;;;3.60;99.90;;;;;;1905814;73;25211;-89
2024/04/09 04:20:10;;;;;;;67.17;6.40;;;3.70;99.90;;;;;;1985101;70;25320;-89
2024/04/09 04:22:58;;;;;;;60.83;7.00;;;3.80;99.90;;;;;;1975962;71;25201;-89
2024/04/09 04:26:00;;;;;;;64.30;6.80;;;3.80;99.90;;;;;;1977106;71;25209;-89
2024/04/09 04:28:49;;;;;;;69.43;7.87;;;3.80;99.90;;;;;;1995598;71;25199;-89
2024/04/09 04:31:39;;;;;;;73.90;6.93;;;3.80;99.90;;;;;;1937766;71;25858;-89
2024/04/09 04:34:28;;;;;;;100.03;7.47;;;3.80;99.90;;;;;;1979916;70;25261;-88
2024/04/09 04:37:16;;;;;;;123.97;8.03;;;3.90;99.90;;;;;;1969979;71;25212;-88
2024/04/09 04:40:05;;;;;;;125.30;9.03;;;3.80;99.90;;;;;;1991610;71;25728;-88
2024/04/09 04:42:53;;;;;;;61.53;6.17;;;3.80;99.90;;;;;;1984476;70;25180;-88
2024/04/09 04:45:42;;;;;;;92.93;7.00;;;4.10;99.90;;;;;;1989234;71;25243;-88
2024/04/09 04:48:30;;;;;;;84.97;5.90;;;4.20;99.90;;;;;;1978539;70;25670;-88
2024/04/09 04:51:19;;;;;;;52.27;6.27;;;4.10;99.90;;;;;;1985498;70;25201;-86
2024/04/09 04:54:07;;;;;;;61.80;6.70;;;4.20;99.90;;;;;;1978816;70;25235;-87
2024/04/09 05:02:20;;;;;;;32.47;5.90;;;4.30;99.90;;;;;;2020562;69;27006;-87
2024/04/09 05:05:09;;;;;;;29.80;5.37;;;4.40;99.90;;;;;;2018032;69;25226;-87
2024/04/09 05:07:58;;;;;;;22.17;5.83;;;4.70;99.90;;;;;;2008362;70;25744;-86
2024/04/09 05:10:47;;;;;;;31.43;7.10;;;4.80;99.90;;;;;;2012572;70;25315;-87
2024/04/09 05:13:36;;;;;;;27.60;7.00;;;5.00;99.90;;;;;;2007612;69;25214;-86
2024/04/09 05:16:25;;;;;;;26.87;6.13;;;5.10;99.90;;;;;;2007353;70;25669;-86
2024/04/09 05:19:16;;;;;;;26.20;6.43;;;5.30;99.90;;;;;;2013456;69;25617;-85
2024/04/09 05:22:05;;;;;;;24.50;5.87;;;5.40;99.90;;;;;;2011279;69;25603;-86
2024/04/09 05:24:54;;;;;;;17.10;5.20;;;5.60;99.90;;;;;;2013505;70;25279;-87
2024/04/09 05:27:43;;;;;;;25.27;5.90;;;5.70;99.90;;;;;;2014108;70;25143;-86
2024/04/09 05:30:32;;;;;;;18.13;5.33;;;5.90;99.90;;;;;;2028639;70;25238;-86
2024/04/09 05:33:21;;;;;;;17.97;6.20;;;6.00;99.90;;;;;;2007345;70;25830;-86
2024/04/09 05:36:10;;;;;;;21.27;4.93;;;6.00;99.90;;;;;;2012669;69;25263;-87
2024/04/09 05:41:43;;;;;;;26.87;5.43;;;6.10;99.90;;;;;;1954245;72;27330;-88
2024/04/09 05:44:32;;;;;;;23.13;5.40;;;6.10;99.90;;;;;;1936380;73;25253;-89
2024/04/09 05:47:20;;;;;;;19.83;5.80;;;6.10;99.90;;;;;;1926640;74;25363;-87
2024/04/09 05:50:09;;;;;;;21.03;5.70;;;6.10;99.90;;;;;;1932648;74;25222;-87
2024/04/09 05:52:58;;;;;;;21.53;5.63;;;6.10;99.90;;;;;;1932691;74;25524;-87
2024/04/09 05:55:55;;;;;;;24.00;6.00;;;6.20;99.90;;;;;;1904661;74;25290;-87
2024/04/09 05:58:44;;;;;;;29.70;6.73;;;6.30;99.90;;;;;;1909340;74;25377;-87
2024/04/09 06:01:33;;;;;;;24.90;6.50;;;6.40;99.90;;;;;;1903330;74;25247;-87
2024/04/09 06:04:21;;;;;;;19.70;5.57;;;6.70;99.90;;;;;;1917000;74;25250;-87
2024/04/09 06:07:11;;;;;;;23.73;6.23;;;6.80;99.90;;;;;;1886400;75;25717;-87
2024/04/09 06:10:02;;;;;;;22.53;5.23;;;6.90;99.90;;;;;;1853848;75;25754;-87
2024/04/09 06:12:51;;;;;;;13.83;3.87;;;7.10;99.90;;;;;;1917116;74;25218;-87
2024/04/09 06:15:40;;;;;;;15.80;4.33;;;7.30;99.90;;;;;;1908430;74;25233;-86
2024/04/09 06:18:28;;;;;;;13.57;4.00;;;7.50;99.90;;;;;;1907198;74;25253;-87
2024/04/09 06:21:17;;;;;;;11.37;3.40;;;7.60;99.90;;;;;;1907449;74;25330;-87
2024/04/09 06:26:49;;;;;;;11.47;3.10;;;7.90;99.90;;;;;;1948354;72;27705;-88
2024/04/09 06:29:40;;;;;;;11.43;3.67;;;8.00;99.90;;;;;;1939288;73;25199;-88
2024/04/09 06:32:30;;;;;;;11.73;2.70;;;8.10;99.90;;;;;;1916688;73;25227;-88
2024/04/09 06:38:04;;;;;;;9.63;3.70;;;8.50;99.90;;;;;;1944246;72;27234;-87
2024/04/09 06:40:54;;;;;;;9.47;2.50;;;8.60;99.90;;;;;;1937727;73;25239;-87
2024/04/09 06:43:48;;;;;;;4.73;1.73;;;8.70;99.90;;;;;;1920018;73;25192;-87
2024/04/09 06:46:38;;;;;;;8.23;1.83;;;8.80;99.90;;;;;;1934457;73;25606;-86
2024/04/09 06:49:28;;;;;;;5.40;2.00;;;8.50;99.90;;;;;;1934305;73;25285;-88
2024/04/09 06:52:19;;;;;;;4.37;1.80;;;8.50;99.90;;;;;;1933350;73;25696;-87
2024/04/09 06:55:09;;;;;;;8.53;2.10;;;8.60;99.90;;;;;;1903839;74;25293;-86
2024/04/09 06:57:58;;;;;;;3.50;1.77;;;8.50;99.90;;;;;;1861228;75;25189;-86
2024/04/09 07:00:48;;;;;;;4.53;2.00;;;8.20;99.90;;;;;;1921670;74;25674;-86
2024/04/09 07:03:38;;;;;;;5.60;2.23;;;8.30;99.90;;;;;;1901778;73;25333;-88
2024/04/09 07:09:16;;;;;;;2.17;1.73;;;8.40;99.90;;;;;;1943264;72;27135;-88
2024/04/09 07:12:05;;;;;;;4.63;1.80;;;8.60;99.90;;;;;;1920892;73;25241;-88
2024/04/09 07:17:39;;;;;;;7.90;2.00;;;8.40;99.90;;;;;;1998860;71;27100;-89
2024/04/09 07:20:28;;;;;;;22.57;8.23;;;8.40;99.90;;;;;;1939856;72;25682;-87
2024/04/09 07:23:16;;;;;;;26.37;10.70;;;8.40;99.90;;;;;;1883475;75;25204;-88
2024/04/09 07:26:06;;;;;;;19.30;7.53;;;8.70;99.90;;;;;;1949293;72;26130;-88
2024/04/09 07:28:57;;;;;;;26.63;11.70;;;9.20;99.90;;;;;;1956501;72;25856;-88
2024/04/09 07:31:49;;;;;;;23.70;9.33;;;9.40;99.90;;;;;;1962496;72;25237;-86
2024/04/09 07:34:43;;;;;;;30.33;9.23;;;9.50;99.90;;;;;;1954260;72;25206;-86
2024/04/09 07:37:30;;;;;;;31.50;12.37;;;9.60;99.90;;;;;;1965884;72;25233;-86
2024/04/09 07:40:21;;;;;;;29.43;11.10;;;9.60;99.90;;;;;;1935719;72;25357;-86
2024/04/09 07:43:11;;;;;;;31.97;12.37;;;10.10;99.90;;;;;;1944701;72;25248;-88
2024/04/09 07:46:01;;;;;;;38.63;14.90;;;10.90;99.90;;;;;;1939361;72;25261;-88
2024/04/09 07:48:50;;;;;;;44.87;18.00;;;11.30;99.90;;;;;;1910124;74;25328;-87
2024/04/09 07:54:19;;;;;;;23.07;8.63;;;11.70;99.90;;;;;;1957697;72;27132;-88
2024/04/09 07:57:14;;;;;;;21.43;5.27;;;12.00;99.90;;;;;;1911864;75;25703;-87
2024/04/09 07:59:58;;;;;;;12.93;4.13;;;12.20;99.90;;;;;;1848753;76;25705;-86
2024/04/09 08:02:47;;;;;;;21.73;4.50;;;12.60;99.90;;;;;;1798270;77;25668;-86
2024/04/09 08:05:36;;;;;;;13.23;2.73;;;13.00;99.90;;;;;;1839122;77;25211;-87
2024/04/09 08:08:25;;;;;;;16.73;2.70;;;13.20;99.90;;;;;;1845596;77;25335;-86
2024/04/09 08:11:14;;;;;;;16.80;2.47;;;13.40;99.90;;;;;;1843797;77;25276;-86
2024/04/09 08:14:03;;;;;;;18.37;3.00;;;13.70;99.90;;;;;;1841721;77;25899;-87
2024/04/09 08:16:52;;;;;;;15.37;2.50;;;13.90;99.90;;;;;;1823312;77;25812;-86
2024/04/09 08:19:40;;;;;;;16.77;3.13;;;14.00;99.90;;;;;;1840881;76;25809;-86
2024/04/09 08:22:28;;;;;;;14.67;2.60;;;14.30;99.90;;;;;;1824296;78;25257;-86
2024/04/09 08:25:18;;;;;;;14.50;2.70;;;14.10;99.90;;;;;;1872194;76;25411;-86
2024/04/09 08:28:07;;;;;;;12.00;2.50;;;14.10;99.90;;;;;;1867798;76;25263;-86
2024/04/09 08:30:56;;;;;;;13.83;2.87;;;14.80;99.90;;;;;;1906051;75;25179;-86
2024/04/09 08:36:27;;;;;;;21.90;3.17;;;15.00;99.90;;;;;;1934843;72;26947;-86
2024/04/09 08:41:54;;;;;;;17.57;3.23;;;15.40;99.90;;;;;;1936953;72;27153;-86
2024/04/09 08:44:45;;;;;;;21.60;3.33;;;15.20;99.90;;;;;;1907992;75;25257;-86
2024/04/09 08:47:35;;;;;;;24.47;3.53;;;14.90;99.90;;;;;;1894022;75;25271;-88
2024/04/09 08:50:24;;;;;;;20.07;3.13;;;14.50;99.90;;;;;;1907969;75;25191;-86
2024/04/09 08:53:13;;;;;;;24.60;3.80;;;14.80;99.90;;;;;;1906214;73;25223;-86
2024/04/09 08:56:03;;;;;;;25.83;3.60;;;14.80;99.90;;;;;;1878739;75;25286;-86
2024/04/09 08:58:52;;;;;;;22.53;3.43;;;15.20;99.90;;;;;;1880887;76;25200;-85
2024/04/09 09:01:41;;;;;;;31.07;3.67;;;15.50;99.90;;;;;;1876864;76;25537;-85
2024/04/09 09:04:37;;;;;;;17.10;3.07;;;15.60;99.90;;;;;;1846819;76;25280;-85
2024/04/09 09:07:25;;;;;;;18.57;3.43;;;15.30;99.90;;;;;;1811673;78;25274;-86
2024/04/09 09:10:14;;;;;;;24.70;3.30;;;15.20;99.90;;;;;;1805818;78;25836;-86
2024/04/09 09:15:43;;;;;;;23.53;2.97;;;15.30;99.90;;;;;;1933749;72;27048;-86
2024/04/09 09:18:31;;;;;;;23.77;3.60;;;15.40;99.90;;;;;;1888758;73;25188;-84
2024/04/09 09:24:00;;;;;;;26.37;3.80;;;15.40;99.90;;;;;;1936514;72;27510;-86
2024/04/09 09:26:51;;;;;;;18.60;3.37;;;15.20;99.90;;;;;;1894395;75;25714;-86
2024/04/09 09:29:40;;;;;;;29.27;3.73;;;15.40;99.90;;;;;;1884106;74;25728;-89
2024/04/09 09:32:28;;;;;;;27.07;3.70;;;15.20;99.90;;;;;;1900879;75;25219;-87
2024/04/09 09:35:19;;;;;;;20.60;3.70;;;15.50;99.90;;;;;;1909970;74;25187;-86
2024/04/09 09:38:08;;;;;;;23.07;4.00;;;15.80;99.90;;;;;;1907861;74;25277;-85
2024/04/09 09:40:57;;;;;;;24.37;4.17;;;16.10;99.90;;;;;;1906700;74;25205;-86
2024/04/09 09:43:47;;;;;;;20.03;4.00;;;16.20;99.90;;;;;;1903591;74;25376;-87
2024/04/09 09:46:37;;;;;;;20.93;3.37;;;15.80;99.90;;;;;;1908410;74;26361;-87
2024/04/09 09:49:27;;;;;;;23.47;3.87;;;15.90;99.90;;;;;;1906385;74;25793;-87
2024/04/09 09:52:15;;;;;;;23.73;3.60;;;16.00;99.90;;;;;;1906337;74;26624;-86
2024/04/09 09:55:05;;;;;;;16.70;3.43;;;15.60;99.90;;;;;;1891641;75;25226;-86
2024/04/09 09:57:55;;;;;;;29.00;4.53;;;15.40;99.90;;;;;;1882431;76;25271;-87
2024/04/09 10:00:46;;;;;;;21.03;3.03;;;15.80;99.90;;;;;;1881729;76;25288;-85
2024/04/09 10:03:35;;;;;;;11.67;2.17;;;15.40;99.90;;;;;;1879747;76;25338;-87
2024/04/09 10:09:08;;;;;;;19.90;3.00;;;14.50;99.90;;;;;;2014840;69;26973;-87
2024/04/09 10:11:56;;;;;;;14.30;2.60;;;14.50;99.90;;;;;;2007450;70;25210;-86
2024/04/09 10:14:45;;;;;;;14.17;2.50;;;14.80;99.90;;;;;;2001702;69;25683;-87
2024/04/09 10:17:52;;;;;;;16.30;2.43;;;15.30;99.90;;;;;;2008583;69;25189;-86
2024/04/09 10:20:41;;;;;;;13.60;2.17;;;15.90;99.90;;;;;;2022401;69;25837;-87
2024/04/09 10:23:30;;;;;;;14.80;2.47;;;16.50;99.90;;;;;;2014627;70;25259;-87
2024/04/09 10:26:19;;;;;;;15.43;2.30;;;16.50;99.90;;;;;;1996671;70;25717;-87
2024/04/09 10:29:10;;;;;;;13.70;2.20;;;16.10;99.90;;;;;;2009362;70;25296;-87
2024/04/09 10:31:58;;;;;;;17.10;2.37;;;16.20;99.90;;;;;;2008499;69;25726;-87
2024/04/09 10:34:47;;;;;;;12.83;2.03;;;16.40;99.90;;;;;;2002952;70;25132;-86
2024/04/09 10:40:15;;;;;;;17.83;2.30;;;15.70;99.90;;;;;;1947349;72;27506;-84
2024/04/09 10:43:07;;;;;;;12.43;1.93;;;15.80;99.90;;;;;;1922570;73;25221;-84
2024/04/09 10:45:56;;;;;;;12.53;1.83;;;16.10;99.90;;;;;;1897029;73;25946;-84
2024/04/09 10:51:31;;;;;;;8.80;1.90;;;16.40;99.90;;;;;;1942337;72;27091;-86
2024/04/09 10:54:21;;;;;;;8.63;1.73;;;16.60;99.90;;;;;;1908637;74;25767;-86
2024/04/09 10:57:12;;;;;;;10.40;2.10;;;16.80;99.90;;;;;;1945663;73;25270;-87
2024/04/09 11:00:08;;;;;;;12.03;1.97;;;16.50;99.90;;;;;;1920489;73;25271;-87
2024/04/09 11:02:58;;;;;;;11.40;1.97;;;17.00;99.90;;;;;;1926316;73;25221;-86
2024/04/09 11:05:46;;;;;;;8.77;1.90;;;17.00;99.90;;;;;;1935447;73;25161;-86
2024/04/09 11:08:36;;;;;;;6.57;1.50;;;16.90;99.90;;;;;;1927254;73;25708;-87
2024/04/09 11:11:25;;;;;;;6.47;2.00;;;17.00;99.90;;;;;;1894547;75;25253;-88
2024/04/09 11:14:14;;;;;;;11.57;2.33;;;16.90;99.90;;;;;;1935259;73;25216;-86
2024/04/09 11:17:02;;;;;;;8.10;1.70;;;16.60;99.90;;;;;;1925155;73;25223;-85
2024/04/09 11:22:40;;;;;;;8.47;2.03;;;16.60;99.90;;;;;;2023287;69;26917;-85
2024/04/09 11:25:27;;;;;;;11.40;2.13;;;16.20;99.90;;;;;;1999056;71;25149;-84
2024/04/09 11:28:16;;;;;;;11.67;1.80;;;16.20;99.90;;;;;;1999416;71;25188;-84
2024/04/09 11:33:47;;;;;;;7.20;2.37;;;16.10;99.90;;;;;;1934597;73;27063;-84
2024/04/09 11:36:37;;;;;;;4.70;1.93;;;15.80;99.90;;;;;;1898571;74;25207;-85
2024/04/09 11:39:26;;;;;;;11.37;2.17;;;15.60;99.90;;;;;;1912917;74;25760;-84
2024/04/09 11:42:14;;;;;;;8.03;2.30;;;15.80;99.90;;;;;;1895585;75;25305;-85
2024/04/09 11:45:04;;;;;;;6.83;2.03;;;16.20;99.90;;;;;;1915506;75;25299;-84
2024/04/09 11:47:52;;;;;;;14.13;2.30;;;16.50;99.90;;;;;;1915364;74;25357;-85
2024/04/09 11:50:41;;;;;;;10.30;1.73;;;16.40;99.90;;;;;;1915543;75;25746;-85
2024/04/09 11:53:30;;;;;;;6.20;1.30;;;16.60;99.90;;;;;;1914047;74;25816;-85
2024/04/09 11:56:18;;;;;;;12.73;2.20;;;16.90;99.90;;;;;;1873907;75;25231;-84
2024/04/09 11:59:07;;;;;;;10.53;1.80;;;16.70;99.90;;;;;;1869578;75;25224;-84
2024/04/09 12:04:35;;;;;;;10.30;2.00;;;17.00;99.90;;;;;;1941209;72;27023;-85
2024/04/09 12:07:24;;;;;;;9.47;2.13;;;17.20;99.90;;;;;;1894935;74;25314;-85
2024/04/09 12:12:57;;;;;;;8.40;2.00;;;17.20;99.90;;;;;;1949828;72;27066;-86
2024/04/09 12:15:45;;;;;;;8.73;2.00;;;17.10;99.90;;;;;;1916241;75;25237;-87
2024/04/09 12:18:34;;;;;;;9.50;2.10;;;17.00;99.90;;;;;;1916461;73;25289;-86
2024/04/09 12:21:23;;;;;;;4.57;1.70;;;16.60;99.90;;;;;;1921519;73;25695;-86
2024/04/09 12:24:12;;;;;;;8.23;1.93;;;16.50;99.90;;;;;;1935810;73;25293;-84
2024/04/09 12:27:01;;;;;;;10.17;2.10;;;16.50;99.90;;;;;;1916588;73;25245;-86
2024/04/09 12:29:50;;;;;;;9.43;1.97;;;16.40;99.90;;;;;;1922428;73;25234;-84
2024/04/09 12:32:41;;;;;;;9.23;2.07;;;16.40;99.90;;;;;;1936504;73;25906;-86
2024/04/09 12:35:31;;;;;;;11.80;2.07;;;16.50;99.90;;;;;;1925202;73;25682;-84
2024/04/09 12:38:20;;;;;;;12.20;1.60;;;16.70;99.90;;;;;;1922620;73;25236;-84
2024/04/09 12:41:08;;;;;;;7.63;1.40;;;16.80;99.90;;;;;;1917211;73;25337;-86
2024/04/09 12:43:57;;;;;;;11.63;2.07;;;16.50;99.90;;;;;;1926030;73;25252;-85
2024/04/09 12:46:46;;;;;;;9.97;1.93;;;16.40;99.90;;;;;;1882319;75;25664;-86
2024/04/09 12:49:35;;;;;;;10.67;2.00;;;16.40;99.90;;;;;;1926785;73;25233;-86
2024/04/09 12:52:24;;;;;;;8.73;1.60;;;16.20;99.90;;;;;;1933206;73;25263;-87
2024/04/09 12:55:13;;;;;;;8.90;1.70;;;15.90;99.90;;;;;;1916132;73;25311;-86
2024/04/09 13:00:51;;;;;;;10.93;2.53;;;15.70;99.90;;;;;;1962412;72;27006;-84
2024/04/09 13:03:41;;;;;;;11.50;2.20;;;15.70;99.90;;;;;;1927572;73;25275;-84
2024/04/09 13:06:30;;;;;;;9.30;1.80;;;15.70;99.90;;;;;;1917173;73;25236;-84
2024/04/09 13:09:19;;;;;;;7.20;2.00;;;15.60;99.90;;;;;;1933004;73;25725;-84
2024/04/09 13:12:10;;;;;;;12.17;1.90;;;15.70;99.90;;;;;;1922477;73;25655;-86
2024/04/09 13:14:58;;;;;;;9.37;1.97;;;15.80;99.90;;;;;;1900490;75;25248;-86
2024/04/09 13:17:47;;;;;;;9.97;2.20;;;15.90;99.90;;;;;;1858224;76;25197;-86
2024/04/09 13:20:35;;;;;;;9.53;2.17;;;15.90;99.90;;;;;;1923850;73;25736;-86
2024/04/09 13:23:24;;;;;;;3.03;1.00;;;15.90;99.90;;;;;;1945729;73;25268;-86
2024/04/09 13:26:13;;;;;;;6.70;1.67;;;15.80;99.90;;;;;;1925337;73;25248;-86
2024/04/09 13:29:05;;;;;;;6.23;1.70;;;15.60;99.90;;;;;;1927584;73;25270;-86
2024/04/09 13:31:51;;;;;;;12.37;2.13;;;15.60;99.90;;;;;;1930362;73;25283;-86
2024/04/09 13:34:39;;;;;;;6.70;1.50;;;15.60;99.90;;;;;;1892440;75;25295;-85
2024/04/09 13:37:28;;;;;;;4.80;1.50;;;15.70;99.90;;;;;;1931368;73;25633;-86
2024/04/09 13:40:16;;;;;;;6.97;1.67;;;15.70;99.90;;;;;;1928302;73;25272;-86
2024/04/09 13:43:05;;;;;;;7.60;1.60;;;15.60;99.90;;;;;;1931089;73;25279;-86
2024/04/09 13:45:55;;;;;;;9.73;1.87;;;15.60;99.90;;;;;;1929914;73;25293;-85
2024/04/09 13:48:44;;;;;;;9.80;1.77;;;15.60;99.90;;;;;;1923259;73;25176;-85
2024/04/09 13:51:32;;;;;;;9.17;1.80;;;15.60;99.90;;;;;;1918253;73;25226;-85
2024/04/09 13:54:21;;;;;;;9.60;1.73;;;15.50;99.90;;;;;;1924072;73;25202;-85
2024/04/09 13:57:09;;;;;;;7.63;2.20;;;15.40;99.90;;;;;;1904573;74;25342;-85
2024/04/09 13:59:58;;;;;;;15.80;2.10;;;15.40;99.90;;;;;;1911295;75;25310;-85
2024/04/09 14:02:47;;;;;;;10.03;1.83;;;15.40;99.90;;;;;;1904719;75;25283;-85
2024/04/09 14:05:36;;;;;;;11.07;2.07;;;15.30;99.90;;;;;;1874098;75;25759;-86
2024/04/09 14:08:24;;;;;;;5.77;1.90;;;15.40;99.90;;;;;;1905801;74;25234;-84
2024/04/09 14:11:12;;;;;;;15.97;2.00;;;15.50;99.90;;;;;;1915294;73;25730;-86
2024/04/09 14:14:01;;;;;;;10.87;2.17;;;15.30;99.90;;;;;;1857162;76;25315;-86
2024/04/09 14:19:36;;;;;;;8.63;2.07;;;15.10;99.90;;;;;;1932784;72;27329;-86
2024/04/09 14:22:25;;;;;;;7.73;2.20;;;15.10;99.90;;;;;;1904939;75;25760;-86
2024/04/09 14:28:00;;;;;;;8.23;1.90;;;14.80;99.90;;;;;;1953621;72;27472;-84
2024/04/09 14:30:49;;;;;;;9.20;2.20;;;14.80;99.90;;;;;;1933049;73;25674;-85
2024/04/09 14:33:38;;;;;;;6.43;2.00;;;14.80;99.90;;;;;;1943785;73;25638;-85
2024/04/09 14:36:26;;;;;;;10.43;2.00;;;14.80;99.90;;;;;;1944996;73;25232;-85
2024/04/09 14:39:15;;;;;;;9.17;1.93;;;14.70;99.90;;;;;;1892301;75;25272;-86
2024/04/09 14:42:03;;;;;;;5.37;1.90;;;14.50;99.90;;;;;;1868955;75;25204;-85
2024/04/09 14:44:52;;;;;;;4.63;1.77;;;14.20;99.90;;;;;;1864610;76;25241;-85
2024/04/09 14:47:40;;;;;;;9.10;2.23;;;13.90;99.90;;;;;;1910537;75;25669;-86
2024/04/09 14:50:29;;;;;;;10.70;2.00;;;13.80;99.90;;;;;;1895144;74;25323;-86
2024/04/09 14:53:17;;;;;;;13.30;1.80;;;13.70;99.90;;;;;;1902833;75;25746;-86
2024/04/09 14:56:07;;;;;;;7.83;2.00;;;13.60;99.90;;;;;;1834814;77;25332;-85
2024/04/09 14:58:55;;;;;;;7.33;1.40;;;13.60;99.90;;;;;;1865459;76;25769;-85
2024/04/09 15:01:44;;;;;;;8.83;1.80;;;13.60;99.90;;;;;;1857698;75;25235;-85
2024/04/09 15:07:18;;;;;;;4.20;1.70;;;13.60;99.90;;;;;;1943439;72;27457;-86
2024/04/09 15:10:11;;;;;;;6.87;1.60;;;13.60;99.90;;;;;;1929279;73;25292;-85
2024/04/09 15:13:00;;;;;;;6.17;1.40;;;13.70;99.90;;;;;;1916670;73;25269;-85
2024/04/09 15:15:49;;;;;;;8.50;1.97;;;13.60;99.90;;;;;;1920617;73;25262;-86
2024/04/09 15:18:37;;;;;;;7.97;1.87;;;13.60;99.90;;;;;;1916660;73;25240;-86
2024/04/09 15:21:26;;;;;;;13.07;1.70;;;13.60;99.90;;;;;;1918215;73;25211;-85
2024/04/09 15:24:15;;;;;;;10.40;1.73;;;13.60;99.90;;;;;;1917651;73;25289;-86
2024/04/09 15:27:04;;;;;;;7.10;1.60;;;13.70;99.90;;;;;;1916266;73;25191;-87
2024/04/09 15:29:53;;;;;;;4.87;1.87;;;13.60;99.90;;;;;;1936931;73;25309;-86
2024/04/09 15:32:42;;;;;;;6.33;1.73;;;13.50;99.90;;;;;;1916125;73;25249;-87
2024/04/09 15:35:32;;;;;;;10.33;1.83;;;13.50;99.90;;;;;;1916969;73;25776;-87
2024/04/09 15:38:21;;;;;;;7.77;1.73;;;13.50;99.90;;;;;;1924969;73;25254;-86
2024/04/09 15:43:51;;;;;;;11.17;1.80;;;13.20;99.90;;;;;;1933082;72;27080;-86
2024/04/09 15:46:40;;;;;;;7.17;1.90;;;13.10;99.90;;;;;;1883698;75;25359;-87
2024/04/09 15:49:29;;;;;;;10.67;2.30;;;13.00;99.90;;;;;;1891926;75;26051;-87
2024/04/09 15:52:19;;;;;;;7.80;1.90;;;12.90;99.90;;;;;;1901884;75;25249;-87
2024/04/09 15:55:09;;;;;;;11.93;2.40;;;12.70;99.90;;;;;;1873387;76;25322;-87
2024/04/09 15:57:58;;;;;;;7.37;1.77;;;12.60;99.90;;;;;;1880126;76;25283;-87
2024/04/09 16:00:47;;;;;;;10.90;2.60;;;12.50;99.90;;;;;;1881264;76;25669;-86
2024/04/09 16:03:36;;;;;;;9.43;2.20;;;12.50;99.90;;;;;;1883160;76;25182;-87
2024/04/09 16:06:28;;;;;;;11.17;2.33;;;12.50;99.90;;;;;;1877819;76;25249;-87
2024/04/09 16:09:15;;;;;;;9.27;2.33;;;12.40;99.90;;;;;;1882370;76;25262;-87
2024/04/09 16:12:06;;;;;;;8.43;2.60;;;12.40;99.90;;;;;;1874006;76;25220;-87
2024/04/09 16:17:35;;;;;;;8.97;2.00;;;12.40;99.90;;;;;;1932437;72;27121;-88
2024/04/09 16:20:24;;;;;;;7.50;2.20;;;12.40;99.90;;;;;;1896041;74;25367;-88
2024/04/09 16:23:13;;;;;;;3.90;1.70;;;12.40;99.90;;;;;;1900200;75;25655;-88
2024/04/09 16:28:41;;;;;;;12.30;2.00;;;12.50;99.90;;;;;;1931803;72;27017;-88
2024/04/09 16:31:30;;;;;;;11.47;2.80;;;12.50;99.90;;;;;;1909441;74;25255;-88
2024/04/09 16:34:19;;;;;;;6.53;2.00;;;12.50;99.90;;;;;;1902671;74;25227;-88